createdAt,value
2023-04-02T00:01:06.349Z,8.80
2023-04-02T00:04:08.977Z,8.80
2023-04-02T00:06:44.954Z,8.70
2023-04-02T00:09:14.788Z,8.80
2023-04-02T00:11:48.441Z,8.80
2023-04-02T00:14:25.282Z,8.80
2023-04-02T00:16:56.739Z,8.80
2023-04-02T00:19:28.927Z,8.90
2023-04-02T00:21:57.842Z,8.80
2023-04-02T00:24:24.694Z,8.80
2023-04-02T00:26:53.516Z,8.80
2023-04-02T00:29:20.665Z,8.80
2023-04-02T00:31:50.902Z,8.80
2023-04-02T00:34:39.548Z,8.90
2023-04-02T00:37:15.205Z,8.90
2023-04-02T00:39:44.495Z,8.90
2023-04-02T00:42:12.947Z,8.80
2023-04-02T00:44:44.854Z,8.80
2023-04-02T00:47:26.797Z,8.80
2023-04-02T00:50:12.008Z,8.90
2023-04-02T00:52:41.520Z,8.90
2023-04-02T00:55:24.422Z,8.90
2023-04-02T00:57:52.111Z,8.80
2023-04-02T01:00:32.300Z,8.90
2023-04-02T01:03:19.868Z,8.80
2023-04-02T01:06:13.165Z,8.80
2023-04-02T01:08:57.816Z,8.80
2023-04-02T01:11:33.678Z,8.70
2023-04-02T01:14:41.846Z,8.70
2023-04-02T01:17:48.902Z,8.70
2023-04-02T01:20:52.826Z,8.70
2023-04-02T01:23:35.507Z,8.70
2023-04-02T01:26:26.119Z,8.70
2023-04-02T01:29:12.242Z,8.70
2023-04-02T01:31:39.801Z,8.70
2023-04-02T01:34:11.196Z,8.60
2023-04-02T01:37:02.679Z,8.60
2023-04-02T01:39:35.675Z,8.60
2023-04-02T01:42:14.512Z,8.60
2023-04-02T01:44:51.041Z,8.50
2023-04-02T01:47:22.336Z,8.50
2023-04-02T01:49:49.028Z,8.40
2023-04-02T01:52:34.362Z,8.40
2023-04-02T01:55:01.626Z,8.40
2023-04-02T01:57:28.484Z,8.40
2023-04-02T01:59:55.859Z,8.40
2023-04-02T02:02:23.064Z,8.40
2023-04-02T02:04:50.279Z,8.40
2023-04-02T02:07:20.433Z,8.40
2023-04-02T02:09:51.487Z,8.40
2023-04-02T02:12:18.361Z,8.40
2023-04-02T02:14:49.965Z,8.50
2023-04-02T02:17:27.366Z,8.50
2023-04-02T02:19:59.166Z,8.40
2023-04-02T02:22:32.522Z,8.40
2023-04-02T02:25:02.778Z,8.40
2023-04-02T02:27:46.886Z,8.40
2023-04-02T02:30:14.136Z,8.40
2023-04-02T02:32:59.738Z,8.40
2023-04-02T02:35:37.044Z,8.40
2023-04-02T02:38:28.921Z,8.40
2023-04-02T02:41:07.637Z,8.40
2023-04-02T02:43:41.259Z,8.40
2023-04-02T02:46:17.850Z,8.40
2023-04-02T02:48:45.115Z,8.40
2023-04-02T02:51:31.869Z,8.40
2023-04-02T02:54:03.590Z,8.50
2023-04-02T02:56:33.606Z,8.40
2023-04-02T02:59:01.750Z,8.50
2023-04-02T03:01:33.538Z,8.50
2023-04-02T03:04:04.061Z,8.50
2023-04-02T03:06:32.351Z,8.40
2023-04-02T03:09:03.912Z,8.40
2023-04-02T03:11:54.496Z,8.50
2023-04-02T03:14:36.078Z,8.40
2023-04-02T03:17:35.894Z,8.40
2023-04-02T03:20:19.015Z,8.40
2023-04-02T03:23:08.859Z,8.40
2023-04-02T03:25:44.341Z,8.40
2023-04-02T03:28:20.206Z,8.40
2023-04-02T03:30:55.653Z,8.30
2023-04-02T03:33:31.289Z,8.40
2023-04-02T03:36:14.559Z,8.30
2023-04-02T03:38:46.056Z,8.40
2023-04-02T03:41:28.543Z,8.30
2023-04-02T03:44:00.590Z,8.30
2023-04-02T03:46:33.681Z,8.30
2023-04-02T03:49:18.811Z,8.30
2023-04-02T03:51:56.276Z,8.20
2023-04-02T03:54:23.389Z,8.30
2023-04-02T03:56:52.738Z,8.30
2023-04-02T04:00:05.437Z,8.30
2023-04-02T04:02:46.390Z,8.20
2023-04-02T04:05:28.230Z,8.20
2023-04-02T04:08:04.834Z,8.20
2023-04-02T04:10:32.630Z,8.20
2023-04-02T04:13:27.468Z,8.20
2023-04-02T04:16:04.863Z,8.20
2023-04-02T04:18:43.737Z,8.20
2023-04-02T04:21:37.201Z,8.20
2023-04-02T04:24:22.491Z,8.20
2023-04-02T04:27:09.375Z,8.20
2023-04-02T04:29:48.952Z,8.20
2023-04-02T04:32:39.176Z,8.20
2023-04-02T04:35:26.074Z,8.20
2023-04-02T04:38:04.699Z,8.20
2023-04-02T04:40:37.804Z,8.20
2023-04-02T04:43:11.707Z,8.20
2023-04-02T04:46:00.326Z,8.20
2023-04-02T04:48:36.328Z,8.20
2023-04-02T04:51:30.008Z,8.30
2023-04-02T04:53:57.810Z,8.30
2023-04-02T04:56:31.519Z,8.30
2023-04-02T04:59:30.753Z,8.40
2023-04-02T05:02:04.875Z,8.40
2023-04-02T05:04:38.763Z,8.40
2023-04-02T05:07:17.254Z,8.40
2023-04-02T05:10:30.444Z,8.40
2023-04-02T05:13:09.444Z,8.40
2023-04-02T05:15:55.024Z,8.40
2023-04-02T05:18:33.372Z,8.40
2023-04-02T05:21:32.145Z,8.50
2023-04-02T05:24:33.264Z,8.50
2023-04-02T05:27:12.534Z,8.50
2023-04-02T05:29:43.552Z,8.50
2023-04-02T05:32:13.815Z,8.50
2023-04-02T05:34:48.166Z,8.50
2023-04-02T05:37:21.477Z,8.40
2023-04-02T05:39:54.337Z,8.40
2023-04-02T05:42:28.904Z,8.40
2023-04-02T05:45:17.389Z,8.50
2023-04-02T05:47:46.702Z,8.50
2023-04-02T05:50:27.723Z,8.50
2023-04-02T05:53:06.537Z,8.60
2023-04-02T05:55:51.037Z,8.50
2023-04-02T06:01:21.857Z,8.60
2023-04-02T06:04:00.844Z,8.60
2023-04-02T06:06:41.857Z,8.70
2023-04-02T06:09:39.321Z,8.70
2023-04-02T06:12:26.736Z,8.70
2023-04-02T06:14:54.826Z,8.70
2023-04-02T06:17:27.209Z,8.70
2023-04-02T06:19:56.669Z,8.70
2023-04-02T06:22:39.088Z,8.80
2023-04-02T06:25:24.038Z,8.80
2023-04-02T06:27:55.262Z,8.80
2023-04-02T06:30:28.154Z,8.80
2023-04-02T06:32:56.474Z,8.80
2023-04-02T06:35:24.663Z,8.90
2023-04-02T06:38:00.494Z,9.00
2023-04-02T06:40:50.853Z,9.00
2023-04-02T06:43:36.104Z,9.00
2023-04-02T06:46:32.399Z,8.90
2023-04-02T06:49:13.594Z,8.90
2023-04-02T06:51:44.109Z,9.00
2023-04-02T06:54:16.639Z,9.00
2023-04-02T06:56:49.438Z,9.10
2023-04-02T06:59:23.926Z,9.20
2023-04-02T07:01:57.084Z,9.20
2023-04-02T07:04:25.009Z,9.20
2023-04-02T07:06:53.560Z,9.20
2023-04-02T07:09:22.923Z,9.30
2023-04-02T07:11:54.142Z,9.30
2023-04-02T07:14:21.235Z,9.30
2023-04-02T07:16:51.455Z,9.20
2023-04-02T07:19:22.669Z,9.30
2023-04-02T07:21:53.647Z,9.30
2023-04-02T07:24:21.878Z,9.40
2023-04-02T07:26:48.628Z,9.50
2023-04-02T07:29:17.421Z,9.50
2023-04-02T07:31:46.667Z,9.50
2023-04-02T07:34:13.378Z,9.60
2023-04-02T07:36:40.391Z,9.60
2023-04-02T07:39:07.092Z,9.70
2023-04-02T07:41:33.790Z,9.70
2023-04-02T07:44:00.651Z,9.80
2023-04-02T07:46:27.357Z,9.80
2023-04-02T07:48:54.148Z,10.00
2023-04-02T07:51:25.818Z,10.00
2023-04-02T07:53:55.884Z,10.00
2023-04-02T07:56:25.487Z,10.00
2023-04-02T07:58:52.357Z,10.10
2023-04-02T08:01:24.022Z,10.10
2023-04-02T08:03:53.009Z,10.10
2023-04-02T08:06:21.255Z,10.20
2023-04-02T08:08:48.223Z,10.10
2023-04-02T08:11:15.100Z,10.20
2023-04-02T08:13:41.934Z,10.10
2023-04-02T08:16:09.573Z,10.20
2023-04-02T08:18:36.574Z,10.20
2023-04-02T08:21:06.624Z,10.20
2023-04-02T08:23:33.323Z,10.20
2023-04-02T08:26:00.012Z,10.30
2023-04-02T08:28:27.029Z,10.30
2023-04-02T08:30:53.715Z,10.20
2023-04-02T08:33:21.791Z,10.20
2023-04-02T08:35:50.563Z,10.20
2023-04-02T08:38:19.797Z,10.30
2023-04-02T08:40:50.950Z,10.30
2023-04-02T08:43:45.233Z,10.30
2023-04-02T08:46:24.486Z,10.20
2023-04-02T08:48:55.809Z,10.20
2023-04-02T08:51:36.371Z,10.20
2023-04-02T08:54:27.792Z,10.30
2023-04-02T08:57:13.152Z,10.30
2023-04-02T08:59:43.034Z,10.30
2023-04-02T09:02:24.795Z,10.30
2023-04-02T09:04:51.989Z,10.20
2023-04-02T09:07:18.931Z,10.20
2023-04-02T09:09:50.604Z,10.10
2023-04-02T09:12:26.143Z,10.20
2023-04-02T09:15:04.664Z,10.30
2023-04-02T09:17:37.150Z,10.40
2023-04-02T09:20:22.489Z,10.30
2023-04-02T09:22:53.082Z,10.30
2023-04-02T09:25:27.055Z,10.20
2023-04-02T09:27:56.138Z,10.10
2023-04-02T09:30:29.671Z,10.00
2023-04-02T09:33:07.452Z,9.90
2023-04-02T09:35:50.847Z,9.80
2023-04-02T09:38:30.754Z,9.80
2023-04-02T09:41:18.652Z,9.80
2023-04-02T09:43:45.623Z,9.90
2023-04-02T09:46:26.062Z,10.00
2023-04-02T09:49:00.720Z,10.30
2023-04-02T09:51:31.633Z,10.50
2023-04-02T09:54:04.304Z,10.60
2023-04-02T09:56:33.389Z,10.70
2023-04-02T09:59:14.008Z,10.90
2023-04-02T10:01:41.896Z,11.00
2023-04-02T10:04:33.596Z,11.20
2023-04-02T10:07:00.354Z,11.40
2023-04-02T10:09:37.046Z,11.50
2023-04-02T10:12:07.629Z,11.70
2023-04-02T10:14:39.775Z,11.80
2023-04-02T10:17:21.462Z,11.90
2023-04-02T10:19:53.955Z,11.90
2023-04-02T10:22:22.758Z,12.10
2023-04-02T10:24:50.737Z,12.10
2023-04-02T10:27:37.536Z,11.90
2023-04-02T10:30:23.833Z,12.10
2023-04-02T10:33:08.150Z,12.40
2023-04-02T10:36:19.404Z,12.50
2023-04-02T10:38:58.390Z,12.70
2023-04-02T10:41:46.676Z,12.80
2023-04-02T10:44:50.457Z,13.10
2023-04-02T10:47:33.502Z,13.40
2023-04-02T10:50:29.472Z,13.30
2023-04-02T10:53:16.496Z,13.70
2023-04-02T10:55:52.676Z,13.90
2023-04-02T10:58:24.663Z,13.80
2023-04-02T11:00:56.781Z,13.90
2023-04-02T11:03:41.580Z,14.20
2023-04-02T11:06:22.533Z,14.40
2023-04-02T11:08:56.449Z,14.80
2023-04-02T11:11:44.816Z,15.10
2023-04-02T11:14:31.583Z,15.40
2023-04-02T11:17:06.644Z,15.30
2023-04-02T11:19:46.114Z,15.40
2023-04-02T11:22:25.895Z,15.20
2023-04-02T11:24:54.800Z,15.30
2023-04-02T11:27:35.660Z,15.40
2023-04-02T11:30:26.226Z,15.60
2023-04-02T11:32:54.245Z,15.60
2023-04-02T11:35:36.861Z,15.70
2023-04-02T11:38:12.240Z,15.90
2023-04-02T11:40:48.269Z,15.70
2023-04-02T11:43:33.191Z,15.30
2023-04-02T11:46:18.738Z,14.70
2023-04-02T11:48:45.560Z,14.20
2023-04-02T11:51:32.290Z,13.80
2023-04-02T11:54:00.472Z,13.40
2023-04-02T11:56:34.254Z,13.20
2023-04-02T11:59:27.738Z,13.00
2023-04-02T12:02:41.083Z,12.80
2023-04-02T12:05:23.831Z,12.80
2023-04-02T12:08:05.823Z,12.70
2023-04-02T12:10:52.294Z,12.70
2023-04-02T12:13:39.299Z,12.50
2023-04-02T12:16:13.331Z,12.50
2023-04-02T12:18:54.832Z,12.20
2023-04-02T12:21:23.515Z,11.80
2023-04-02T12:23:54.226Z,11.50
2023-04-02T12:26:37.184Z,10.80
2023-04-02T12:29:19.135Z,10.50
2023-04-02T12:31:47.680Z,10.30
2023-04-02T12:34:16.909Z,10.30
2023-04-02T12:37:04.512Z,10.20
2023-04-02T12:39:34.872Z,10.20
2023-04-02T12:42:02.019Z,10.10
2023-04-02T12:44:32.741Z,10.00
2023-04-02T12:46:59.881Z,10.00
2023-04-02T12:49:42.262Z,10.00
2023-04-02T12:52:14.838Z,10.00
2023-04-02T12:54:50.874Z,10.00
2023-04-02T12:57:32.954Z,10.00
2023-04-02T13:00:22.425Z,10.10
2023-04-02T13:02:59.358Z,10.10
2023-04-02T13:05:50.630Z,10.10
2023-04-02T13:08:25.618Z,9.90
2023-04-02T13:10:58.305Z,9.90
2023-04-02T13:13:32.851Z,9.90
2023-04-02T13:16:21.472Z,9.80
2023-04-02T13:18:49.436Z,9.80
2023-04-02T13:21:19.390Z,9.80
2023-04-02T13:23:46.476Z,9.90
2023-04-02T13:26:25.739Z,9.90
2023-04-02T13:29:03.063Z,10.00
2023-04-02T13:31:31.676Z,10.00
2023-04-02T13:33:59.042Z,9.90
2023-04-02T13:36:26.591Z,9.90
2023-04-02T13:38:56.888Z,9.90
2023-04-02T13:41:29.013Z,10.00
2023-04-02T13:43:59.941Z,10.00
2023-04-02T13:46:34.639Z,10.00
2023-04-02T13:49:01.510Z,9.90
2023-04-02T13:51:53.076Z,9.90
2023-04-02T13:54:34.906Z,10.00
2023-04-02T13:57:01.840Z,10.00
2023-04-02T13:59:28.701Z,10.00
2023-04-02T14:01:59.096Z,9.80
2023-04-02T14:04:36.239Z,9.90
2023-04-02T14:07:14.943Z,9.90
2023-04-02T14:10:09.329Z,9.80
2023-04-02T14:12:50.894Z,9.70
2023-04-02T14:15:17.509Z,9.70
2023-04-02T14:18:13.008Z,9.70
2023-04-02T14:21:08.016Z,9.70
2023-04-02T14:24:01.439Z,9.60
2023-04-02T14:27:04.220Z,9.60
2023-04-02T14:29:45.393Z,9.60
2023-04-02T14:32:22.417Z,9.60
2023-04-02T14:35:27.003Z,9.60
2023-04-02T14:38:26.680Z,9.60
2023-04-02T14:41:05.738Z,9.60
2023-04-02T14:43:48.218Z,9.50
2023-04-02T14:46:15.027Z,9.50
2023-04-02T14:49:03.584Z,9.40
2023-04-02T14:51:32.889Z,9.50
2023-04-02T14:54:05.708Z,9.40
2023-04-02T14:56:40.130Z,9.40
2023-04-02T14:59:39.437Z,9.50
2023-04-02T15:02:20.829Z,9.50
2023-04-02T15:04:56.805Z,9.40
2023-04-02T15:07:28.880Z,9.40
2023-04-02T15:10:36.882Z,9.40
2023-04-02T15:13:11.695Z,9.40
2023-04-02T15:15:44.486Z,9.20
2023-04-02T15:18:15.722Z,9.30
2023-04-02T15:21:08.661Z,9.20
2023-04-02T15:24:21.713Z,9.10
2023-04-02T15:27:25.521Z,9.10
2023-04-02T15:30:09.958Z,9.10
2023-04-02T15:32:40.131Z,9.10
2023-04-02T15:35:09.567Z,9.10
2023-04-02T15:37:47.952Z,9.10
2023-04-02T15:40:32.063Z,8.90
2023-04-02T15:43:07.483Z,8.90
2023-04-02T15:45:57.695Z,8.80
2023-04-02T15:48:27.543Z,8.90
2023-04-02T15:51:20.110Z,9.00
2023-04-02T15:53:58.253Z,9.00
2023-04-02T15:56:37.724Z,8.90
2023-04-02T15:59:04.359Z,8.90
2023-04-02T16:01:54.951Z,8.90
2023-04-02T16:04:47.375Z,8.90
2023-04-02T16:07:24.794Z,8.80
2023-04-02T16:10:04.937Z,9.00
2023-04-02T16:12:34.652Z,9.00
2023-04-02T16:15:16.408Z,9.00
2023-04-02T16:17:47.503Z,9.00
2023-04-02T16:20:36.777Z,8.90
2023-04-02T16:23:11.659Z,8.90
2023-04-02T16:26:12.901Z,8.80
2023-04-02T16:29:11.836Z,8.80
2023-04-02T16:31:48.824Z,8.80
2023-04-02T16:34:47.562Z,8.80
2023-04-02T16:37:38.241Z,8.70
2023-04-02T16:40:22.439Z,8.70
2023-04-02T16:42:57.774Z,8.60
2023-04-02T16:45:43.392Z,8.50
2023-04-02T16:48:35.270Z,8.50
2023-04-02T16:51:19.771Z,8.40
2023-04-02T16:54:02.128Z,8.40
2023-04-02T16:56:55.688Z,8.20
2023-04-02T16:59:34.366Z,8.30
2023-04-02T17:02:23.864Z,8.20
2023-04-02T17:05:09.024Z,8.10
2023-04-02T17:07:43.711Z,8.00
2023-04-02T17:10:32.955Z,8.00
2023-04-02T17:13:18.528Z,8.00
2023-04-02T17:16:14.630Z,8.00
2023-04-02T17:18:43.219Z,8.00
2023-04-02T17:21:14.588Z,8.00
2023-04-02T17:26:22.052Z,7.80
2023-04-02T17:28:50.241Z,7.70
2023-04-02T17:31:25.657Z,7.70
2023-04-02T17:33:52.370Z,7.60
2023-04-02T17:37:01.578Z,7.50
2023-04-02T17:39:59.942Z,7.50
2023-04-02T17:42:58.886Z,7.40
2023-04-02T17:45:50.118Z,7.40
2023-04-02T17:48:30.523Z,7.40
2023-04-02T17:51:18.066Z,7.30
2023-04-02T17:54:05.227Z,7.20
2023-04-02T17:56:53.357Z,7.20
2023-04-02T17:59:55.644Z,7.00
2023-04-02T18:02:40.402Z,7.00
2023-04-02T18:05:26.809Z,7.00
2023-04-02T18:08:22.602Z,7.00
2023-04-02T18:11:09.504Z,6.90
2023-04-02T18:13:41.719Z,6.80
2023-04-02T18:16:20.795Z,6.90
2023-04-02T18:19:17.910Z,6.90
2023-04-02T18:22:18.184Z,6.90
2023-04-02T18:25:03.669Z,6.80
2023-04-02T18:27:55.340Z,6.70
2023-04-02T18:30:34.072Z,6.60
2023-04-02T18:33:17.858Z,6.60
2023-04-02T18:35:51.935Z,6.60
2023-04-02T18:38:22.762Z,6.60
2023-04-02T18:40:58.087Z,6.50
2023-04-02T18:43:35.685Z,6.40
2023-04-02T18:46:36.229Z,6.30
2023-04-02T18:49:19.575Z,6.30
2023-04-02T18:51:50.663Z,6.30
2023-04-02T18:54:41.607Z,6.20
2023-04-02T18:57:14.777Z,6.20
2023-04-02T18:59:51.226Z,6.10
2023-04-02T19:02:20.977Z,6.00
2023-04-02T19:05:02.001Z,5.90
2023-04-02T19:07:30.905Z,5.90
2023-04-02T19:10:03.129Z,5.80
2023-04-02T19:12:33.723Z,5.70
2023-04-02T19:15:00.684Z,5.60
2023-04-02T19:17:37.490Z,5.70
2023-04-02T19:20:37.653Z,5.60
2023-04-02T19:23:10.003Z,5.60
2023-04-02T19:26:07.042Z,5.60
2023-04-02T19:28:45.502Z,5.50
2023-04-02T19:31:33.576Z,5.40
2023-04-02T19:34:12.558Z,5.50
2023-04-02T19:37:12.619Z,5.50
2023-04-02T19:40:06.594Z,5.40
2023-04-02T19:42:36.120Z,5.40
2023-04-02T19:45:03.542Z,5.40
2023-04-02T19:47:30.436Z,5.40
2023-04-02T19:49:57.277Z,5.30
2023-04-02T19:52:24.071Z,5.40
2023-04-02T19:54:50.738Z,5.30
2023-04-02T19:57:17.762Z,5.30
2023-04-02T19:59:44.529Z,5.30
2023-04-02T20:02:11.462Z,5.40
2023-04-02T20:04:38.327Z,5.30
2023-04-02T20:07:05.546Z,5.30
2023-04-02T20:09:32.257Z,5.30
2023-04-02T20:11:59.034Z,5.30
2023-04-02T20:14:25.912Z,5.30
2023-04-02T20:16:52.735Z,5.20
2023-04-02T20:19:19.501Z,5.30
2023-04-02T20:21:46.166Z,5.30
2023-04-02T20:24:12.959Z,5.20
2023-04-02T20:26:39.667Z,5.20
2023-04-02T20:29:06.417Z,5.20
2023-04-02T20:31:33.564Z,5.30
2023-04-02T20:34:02.379Z,5.20
2023-04-02T20:36:29.365Z,5.20
2023-04-02T20:38:57.417Z,5.20
2023-04-02T20:41:24.159Z,5.20
2023-04-02T20:43:50.904Z,5.10
2023-04-02T20:46:17.926Z,5.20
2023-04-02T20:48:45.164Z,5.20
2023-04-02T20:51:14.845Z,5.30
2023-04-02T20:53:42.091Z,5.20
2023-04-02T20:56:16.714Z,5.20
2023-04-02T20:58:44.140Z,5.20
2023-04-02T21:01:21.188Z,5.20
2023-04-02T21:03:48.923Z,5.20
2023-04-02T21:06:18.030Z,5.20
2023-04-02T21:08:45.386Z,5.20
2023-04-02T21:11:12.984Z,5.20
2023-04-02T21:13:42.411Z,5.10
2023-04-02T21:16:29.755Z,5.10
2023-04-02T21:19:00.858Z,5.20
2023-04-02T21:21:28.398Z,5.20
2023-04-02T21:23:59.299Z,5.10
2023-04-02T21:26:26.975Z,5.10
2023-04-02T21:28:54.050Z,5.00
2023-04-02T21:31:23.350Z,5.00
2023-04-02T21:33:54.940Z,5.00
2023-04-02T21:36:24.252Z,5.00
2023-04-02T21:38:55.148Z,5.00
2023-04-02T21:41:26.583Z,5.10
2023-04-02T21:43:54.097Z,5.10
2023-04-02T21:46:23.591Z,5.00
2023-04-02T21:48:51.689Z,5.00
2023-04-02T21:51:24.490Z,5.00
2023-04-02T21:53:54.019Z,5.00
2023-04-02T21:56:23.856Z,5.00
2023-04-02T21:58:51.332Z,5.00
2023-04-02T22:01:26.749Z,5.00
2023-04-02T22:03:55.062Z,5.00
2023-04-02T22:06:23.147Z,5.00
2023-04-02T22:08:59.038Z,5.00
2023-04-02T22:11:28.407Z,5.00
2023-04-02T22:13:55.793Z,5.00
2023-04-02T22:16:25.168Z,5.00
2023-04-02T22:18:53.471Z,5.00
2023-04-02T22:21:20.810Z,5.00
2023-04-02T22:23:48.389Z,5.00
2023-04-02T22:26:17.606Z,5.00
2023-04-02T22:28:45.285Z,5.00
2023-04-02T22:31:16.002Z,5.00
2023-04-02T22:33:44.277Z,5.00
2023-04-02T22:36:12.056Z,5.00
2023-04-02T22:38:38.967Z,5.00
2023-04-02T22:41:10.168Z,4.90
2023-04-02T22:43:37.728Z,4.90
2023-04-02T22:46:05.547Z,4.90
2023-04-02T22:48:32.591Z,4.90
2023-04-02T22:50:59.348Z,5.00
2023-04-02T22:53:26.288Z,5.00
2023-04-02T22:55:53.740Z,4.90
2023-04-02T22:58:21.095Z,5.00
2023-04-02T23:00:48.419Z,5.00
2023-04-02T23:03:15.343Z,4.90
2023-04-02T23:05:42.567Z,5.00
2023-04-02T23:08:09.747Z,5.00
2023-04-02T23:10:36.881Z,5.00
2023-04-02T23:13:03.767Z,5.00
2023-04-02T23:15:30.511Z,4.90
2023-04-02T23:17:57.279Z,4.80
2023-04-02T23:20:24.240Z,4.70
2023-04-02T23:22:51.346Z,4.60
2023-04-02T23:25:18.142Z,4.50
2023-04-02T23:27:44.972Z,4.50
2023-04-02T23:30:12.290Z,4.50
2023-04-02T23:32:39.097Z,4.30
2023-04-02T23:35:06.541Z,4.30
2023-04-02T23:37:33.172Z,4.20
2023-04-02T23:39:59.880Z,4.10
2023-04-02T23:42:27.278Z,4.10
2023-04-02T23:44:55.028Z,4.00
2023-04-02T23:47:21.700Z,3.90
2023-04-02T23:49:48.385Z,3.90
2023-04-02T23:52:15.677Z,3.90
2023-04-02T23:54:42.505Z,3.80
2023-04-02T23:57:09.376Z,3.80
2023-04-02T23:59:36.210Z,3.70
